Time;durP1;ratioP1;P1;durP2;ratioP2;P2;SDS_P1;SDS_P2;PMS_P1;PMS_P2;Temp;Humidity;BMP_temperature;BMP_pressure;BME280_temperature;BME280_humidity;BME280_pressure;Samples;Min_cycle;Max_cycle;Signal;HPM_P1;HPM_P2
2023/10/03 00:01:29;;;;;;;43.15;20.80;;;;;;;;;;4999263;28;20095;-71
2023/10/03 00:04:14;;;;;;;33.88;17.27;;;;;;;;;;5013729;28;20112;-70
2023/10/03 00:07:01;;;;;;;33.60;18.40;;;;;;;;;;5000675;28;20026;-71
2023/10/03 00:09:46;;;;;;;37.45;18.70;;;;;;;;;;5013856;28;20064;-70
2023/10/03 00:12:32;;;;;;;38.53;17.95;;;;;;;;;;5013702;28;20160;-70
2023/10/03 00:15:19;;;;;;;32.97;17.48;;;;;;;;;;5000395;28;20033;-72
2023/10/03 00:18:04;;;;;;;38.53;18.70;;;;;;;;;;4999327;28;20468;-74
2023/10/03 00:20:50;;;;;;;37.72;19.15;;;;;;;;;;4992449;28;20243;-75
2023/10/03 00:23:35;;;;;;;38.80;19.75;;;;;;;;;;5000625;28;20044;-67
2023/10/03 00:26:22;;;;;;;38.92;19.92;;;;;;;;;;5012221;28;20037;-65
2023/10/03 00:29:13;;;;;;;32.58;16.35;;;;;;;;;;5004726;28;20029;-67
2023/10/03 00:31:58;;;;;;;33.78;16.60;;;;;;;;;;5006481;28;20641;-67
2023/10/03 00:34:45;;;;;;;36.90;18.95;;;;;;;;;;5000363;28;20071;-66
2023/10/03 00:37:30;;;;;;;34.92;15.88;;;;;;;;;;5005320;28;20061;-65
2023/10/03 00:43:07;;;;;;;38.67;18.98;;;;;;;;;;5012532;28;20025;-75
2023/10/03 00:45:53;;;;;;;35.25;17.40;;;;;;;;;;5013177;28;20053;-72
2023/10/03 00:48:39;;;;;;;33.60;18.42;;;;;;;;;;5007572;28;20029;-72
2023/10/03 00:51:25;;;;;;;33.55;18.10;;;;;;;;;;5001070;28;20033;-72
2023/10/03 00:54:10;;;;;;;33.35;17.75;;;;;;;;;;5007564;28;20084;-72
2023/10/03 00:56:56;;;;;;;32.20;15.80;;;;;;;;;;5010269;28;20536;-74
2023/10/03 00:59:41;;;;;;;33.60;16.83;;;;;;;;;;5003762;28;20033;-70
2023/10/03 01:02:27;;;;;;;33.75;17.80;;;;;;;;;;5003033;28;20558;-70
2023/10/03 01:05:14;;;;;;;27.38;14.05;;;;;;;;;;4998387;28;20022;-71
2023/10/03 01:08:00;;;;;;;29.30;15.25;;;;;;;;;;5011618;28;20054;-69
2023/10/03 01:10:45;;;;;;;33.28;16.30;;;;;;;;;;4997891;28;20034;-70
2023/10/03 01:13:30;;;;;;;36.10;18.48;;;;;;;;;;4995758;28;20026;-70
2023/10/03 01:16:31;;;;;;;37.53;19.75;;;;;;;;;;5000373;28;20552;-70
2023/10/03 01:19:25;;;;;;;31.60;15.15;;;;;;;;;;5016869;28;20111;-72
2023/10/03 01:22:11;;;;;;;34.67;16.33;;;;;;;;;;5010233;28;20037;-70
2023/10/03 01:24:56;;;;;;;29.02;14.13;;;;;;;;;;5015551;28;20033;-71
2023/10/03 01:27:41;;;;;;;31.63;17.15;;;;;;;;;;5003045;28;20026;-72
2023/10/03 01:30:27;;;;;;;29.13;15.23;;;;;;;;;;5005010;28;20527;-70
2023/10/03 01:33:12;;;;;;;29.38;15.43;;;;;;;;;;5015487;28;20029;-75
2023/10/03 01:35:58;;;;;;;31.00;14.38;;;;;;;;;;5008001;28;20022;-69
2023/10/03 01:38:44;;;;;;;29.67;14.98;;;;;;;;;;5016768;28;20088;-71
2023/10/03 01:41:29;;;;;;;29.58;14.35;;;;;;;;;;5016584;28;20029;-71
2023/10/03 01:44:16;;;;;;;34.42;16.58;;;;;;;;;;5017158;28;20087;-72
2023/10/03 01:47:01;;;;;;;31.20;15.90;;;;;;;;;;5014386;28;20021;-71
2023/10/03 01:49:50;;;;;;;30.15;15.80;;;;;;;;;;5002281;28;20029;-74
2023/10/03 01:52:35;;;;;;;32.35;15.80;;;;;;;;;;5016620;28;20091;-75
2023/10/03 01:55:21;;;;;;;30.90;16.10;;;;;;;;;;5011005;28;20029;-67
2023/10/03 01:58:06;;;;;;;30.95;16.63;;;;;;;;;;5016757;28;20036;-66
2023/10/03 02:00:51;;;;;;;30.13;15.05;;;;;;;;;;5014578;28;20035;-67
2023/10/03 02:03:37;;;;;;;33.80;16.08;;;;;;;;;;5006843;28;20548;-66
2023/10/03 02:06:22;;;;;;;26.38;14.27;;;;;;;;;;5012650;28;20147;-65
2023/10/03 02:09:08;;;;;;;28.88;14.95;;;;;;;;;;5016600;28;20037;-72
2023/10/03 02:11:54;;;;;;;31.85;15.05;;;;;;;;;;4991022;28;20087;-71
2023/10/03 02:14:40;;;;;;;30.85;14.95;;;;;;;;;;5002226;28;20492;-71
2023/10/03 02:17:28;;;;;;;30.60;14.38;;;;;;;;;;4991119;28;20022;-71
2023/10/03 02:20:16;;;;;;;32.38;15.25;;;;;;;;;;4999114;28;20025;-71
2023/10/03 02:23:05;;;;;;;29.02;14.23;;;;;;;;;;4999982;28;20055;-71
2023/10/03 02:25:51;;;;;;;30.27;15.57;;;;;;;;;;5004814;28;20387;-71
2023/10/03 02:28:37;;;;;;;28.48;14.02;;;;;;;;;;5010106;28;20105;-72
2023/10/03 02:31:22;;;;;;;28.00;13.55;;;;;;;;;;5014869;28;20029;-74
2023/10/03 02:34:08;;;;;;;30.27;14.02;;;;;;;;;;5010467;28;20049;-74
2023/10/03 02:36:55;;;;;;;32.03;14.75;;;;;;;;;;5000257;28;20096;-73
2023/10/03 02:39:40;;;;;;;27.65;14.18;;;;;;;;;;5015668;28;20124;-74
2023/10/03 02:42:26;;;;;;;31.48;15.73;;;;;;;;;;5004248;28;20091;-74
2023/10/03 02:45:15;;;;;;;31.83;14.98;;;;;;;;;;5012024;28;20029;-70
2023/10/03 02:48:07;;;;;;;29.65;14.98;;;;;;;;;;5014634;28;20396;-71
2023/10/03 02:50:52;;;;;;;24.85;13.68;;;;;;;;;;5015061;28;20386;-75
2023/10/03 02:53:38;;;;;;;23.70;13.23;;;;;;;;;;5001903;28;20033;-76
2023/10/03 02:56:23;;;;;;;29.63;14.13;;;;;;;;;;5015492;28;20068;-76
2023/10/03 02:59:08;;;;;;;26.20;13.13;;;;;;;;;;5014951;28;20372;-76
2023/10/03 03:01:56;;;;;;;30.67;14.93;;;;;;;;;;5005652;28;20046;-76
2023/10/03 03:04:43;;;;;;;32.80;14.85;;;;;;;;;;5013953;28;20029;-66
2023/10/03 03:07:28;;;;;;;34.88;15.68;;;;;;;;;;5015578;28;20041;-71
2023/10/03 03:10:14;;;;;;;30.48;14.45;;;;;;;;;;4983962;28;20477;-72
2023/10/03 03:13:01;;;;;;;29.27;15.32;;;;;;;;;;4998592;28;20029;-70
2023/10/03 03:15:52;;;;;;;30.83;13.90;;;;;;;;;;5001016;28;20371;-71
2023/10/03 03:18:40;;;;;;;28.20;12.82;;;;;;;;;;4985015;28;20369;-69
2023/10/03 03:21:26;;;;;;;27.88;14.18;;;;;;;;;;5014691;28;20091;-70
2023/10/03 03:24:21;;;;;;;28.42;14.57;;;;;;;;;;5003518;28;20339;-71
2023/10/03 03:27:11;;;;;;;27.60;14.98;;;;;;;;;;5014238;28;20060;-70
2023/10/03 03:30:28;;;;;;;32.83;14.98;;;;;;;;;;5000624;28;20057;-70
2023/10/03 03:33:09;;;;;;;28.02;14.00;;;;;;;;;;5014544;28;20443;-69
2023/10/03 03:35:54;;;;;;;25.13;13.07;;;;;;;;;;5004958;28;20057;-69
2023/10/03 03:38:41;;;;;;;25.30;13.30;;;;;;;;;;4994638;28;20049;-71
2023/10/03 03:41:26;;;;;;;28.10;14.48;;;;;;;;;;4995009;28;20034;-71
2023/10/03 03:44:12;;;;;;;25.73;12.55;;;;;;;;;;4994609;28;20555;-76
2023/10/03 03:46:57;;;;;;;30.40;14.48;;;;;;;;;;4994508;28;20116;-76
2023/10/03 03:49:42;;;;;;;28.75;14.23;;;;;;;;;;4997163;28;20030;-75
2023/10/03 03:52:32;;;;;;;31.15;14.30;;;;;;;;;;5011975;28;20028;-76
2023/10/03 03:55:17;;;;;;;29.65;15.50;;;;;;;;;;4997941;28;20045;-74
2023/10/03 03:58:12;;;;;;;27.52;13.93;;;;;;;;;;4995076;28;20037;-76
2023/10/03 04:00:58;;;;;;;26.55;14.18;;;;;;;;;;5010511;28;20037;-74
2023/10/03 04:03:45;;;;;;;23.67;12.70;;;;;;;;;;5013961;28;20392;-69
2023/10/03 04:06:32;;;;;;;23.73;12.57;;;;;;;;;;5014279;28;20033;-70
2023/10/03 04:09:17;;;;;;;27.70;13.82;;;;;;;;;;5014117;28;20056;-72
2023/10/03 04:12:03;;;;;;;28.02;14.73;;;;;;;;;;5014318;28;20489;-71
2023/10/03 04:14:48;;;;;;;23.88;12.25;;;;;;;;;;5000175;28;20030;-71
2023/10/03 04:17:34;;;;;;;28.33;13.80;;;;;;;;;;5014345;28;20488;-66
2023/10/03 04:23:11;;;;;;;27.13;14.52;;;;;;;;;;4997682;28;20033;-64
2023/10/03 04:25:56;;;;;;;25.33;13.05;;;;;;;;;;4992364;28;20332;-66
2023/10/03 04:28:41;;;;;;;26.17;12.23;;;;;;;;;;4999600;28;20189;-64
2023/10/03 04:31:27;;;;;;;24.33;11.80;;;;;;;;;;5000456;28;20025;-64
2023/10/03 04:34:16;;;;;;;25.15;12.43;;;;;;;;;;5003437;28;20432;-66
2023/10/03 04:37:01;;;;;;;28.30;14.18;;;;;;;;;;4994327;28;20061;-77
2023/10/03 04:39:47;;;;;;;26.58;12.85;;;;;;;;;;5007602;28;20037;-71
2023/10/03 04:42:32;;;;;;;25.92;14.32;;;;;;;;;;4994251;28;20430;-70
2023/10/03 04:45:20;;;;;;;22.42;10.88;;;;;;;;;;4983790;28;20033;-71
2023/10/03 04:48:06;;;;;;;21.05;11.63;;;;;;;;;;5013129;28;20017;-70
2023/10/03 04:50:51;;;;;;;20.65;10.35;;;;;;;;;;5010711;28;20541;-70
2023/10/03 04:53:37;;;;;;;25.60;12.30;;;;;;;;;;5014055;28;20116;-70
2023/10/03 04:56:22;;;;;;;20.20;11.43;;;;;;;;;;5000724;28;20152;-73
2023/10/03 04:59:07;;;;;;;24.02;12.63;;;;;;;;;;4999137;28;20124;-71
2023/10/03 05:01:53;;;;;;;20.83;11.45;;;;;;;;;;5003163;28;20030;-72
2023/10/03 05:04:40;;;;;;;24.48;11.18;;;;;;;;;;5003628;28;20038;-71
2023/10/03 05:07:26;;;;;;;27.40;11.48;;;;;;;;;;4993559;28;20045;-73
2023/10/03 05:10:11;;;;;;;21.33;10.68;;;;;;;;;;5001743;28;20465;-71
2023/10/03 05:13:00;;;;;;;20.23;11.15;;;;;;;;;;5013065;28;20073;-75
2023/10/03 05:15:45;;;;;;;17.77;10.17;;;;;;;;;;5013268;28;20396;-74
2023/10/03 05:18:31;;;;;;;22.48;11.68;;;;;;;;;;4996595;28;20045;-72
2023/10/03 05:21:16;;;;;;;24.40;11.63;;;;;;;;;;5008981;28;20040;-74
2023/10/03 05:24:01;;;;;;;20.58;11.23;;;;;;;;;;5014091;28;20042;-73
2023/10/03 05:26:48;;;;;;;18.48;10.77;;;;;;;;;;5011652;28;20112;-74
2023/10/03 05:29:34;;;;;;;22.08;10.50;;;;;;;;;;5013867;28;20135;-73
2023/10/03 05:32:21;;;;;;;21.75;10.35;;;;;;;;;;5001730;28;20060;-73
2023/10/03 05:35:07;;;;;;;21.30;11.10;;;;;;;;;;4999861;28;20033;-66
2023/10/03 05:37:52;;;;;;;18.90;9.88;;;;;;;;;;4994136;28;20072;-66
2023/10/03 05:40:37;;;;;;;19.65;10.63;;;;;;;;;;5001686;28;20136;-68
2023/10/03 05:43:23;;;;;;;20.80;10.73;;;;;;;;;;5016373;28;20506;-68
2023/10/03 05:46:08;;;;;;;20.42;11.40;;;;;;;;;;5016758;28;20163;-66
2023/10/03 05:48:53;;;;;;;19.38;10.27;;;;;;;;;;5012991;28;20112;-74
2023/10/03 05:51:39;;;;;;;19.70;11.02;;;;;;;;;;5003462;28;20033;-65
2023/10/03 05:54:25;;;;;;;18.95;9.65;;;;;;;;;;4998279;28;20034;-67
2023/10/03 05:57:11;;;;;;;22.90;11.15;;;;;;;;;;4996194;28;20031;-66
2023/10/03 05:59:56;;;;;;;20.17;10.48;;;;;;;;;;5016087;28;20108;-66
2023/10/03 06:02:42;;;;;;;18.02;9.63;;;;;;;;;;5013344;28;20040;-68
2023/10/03 06:05:27;;;;;;;19.13;10.45;;;;;;;;;;5008190;28;20038;-67
2023/10/03 06:08:12;;;;;;;20.48;10.43;;;;;;;;;;5015934;28;20468;-72
2023/10/03 06:10:59;;;;;;;23.88;10.75;;;;;;;;;;5002437;28;20041;-75
2023/10/03 06:13:45;;;;;;;16.90;8.95;;;;;;;;;;5016410;28;20079;-75
2023/10/03 06:16:30;;;;;;;22.63;10.95;;;;;;;;;;5014312;28;20025;-75
2023/10/03 06:19:18;;;;;;;19.30;10.35;;;;;;;;;;5016377;28;20037;-74
2023/10/03 06:22:05;;;;;;;19.08;10.38;;;;;;;;;;5004225;28;20116;-76
2023/10/03 06:24:53;;;;;;;20.85;10.25;;;;;;;;;;5013455;28;20073;-75
2023/10/03 06:27:38;;;;;;;16.85;8.70;;;;;;;;;;5002490;28;20037;-71
2023/10/03 06:30:23;;;;;;;19.00;10.15;;;;;;;;;;5002600;28;20471;-66
2023/10/03 06:33:08;;;;;;;21.20;9.15;;;;;;;;;;5001616;28;20207;-67
2023/10/03 06:35:54;;;;;;;20.25;10.38;;;;;;;;;;5016111;28;20033;-68
2023/10/03 06:38:41;;;;;;;20.65;10.50;;;;;;;;;;5015090;28;20040;-66
2023/10/03 06:41:26;;;;;;;18.85;9.13;;;;;;;;;;5016000;28;20044;-66
2023/10/03 06:44:12;;;;;;;17.75;8.60;;;;;;;;;;5009157;28;20039;-73
2023/10/03 06:46:57;;;;;;;16.45;9.60;;;;;;;;;;5012304;28;20456;-73
2023/10/03 06:49:43;;;;;;;15.98;8.38;;;;;;;;;;5012305;28;20048;-71
2023/10/03 06:52:28;;;;;;;15.82;8.15;;;;;;;;;;5011923;28;20064;-69
2023/10/03 06:55:15;;;;;;;18.10;9.60;;;;;;;;;;5009918;28;20029;-70
2023/10/03 06:58:01;;;;;;;16.48;8.98;;;;;;;;;;5002128;28;20032;-68
2023/10/03 07:00:46;;;;;;;17.77;9.00;;;;;;;;;;5013727;28;20064;-69
2023/10/03 07:03:31;;;;;;;18.60;10.40;;;;;;;;;;5001695;28;20116;-64
2023/10/03 07:06:17;;;;;;;18.58;9.32;;;;;;;;;;5014737;28;20117;-71
2023/10/03 07:09:07;;;;;;;16.88;7.60;;;;;;;;;;5015342;28;20037;-71
2023/10/03 07:11:52;;;;;;;19.65;8.93;;;;;;;;;;5008981;28;20033;-71
2023/10/03 07:14:38;;;;;;;15.80;8.80;;;;;;;;;;5014357;28;20044;-72
2023/10/03 07:17:23;;;;;;;13.90;7.55;;;;;;;;;;5015306;28;20104;-73
2023/10/03 07:20:10;;;;;;;17.60;9.20;;;;;;;;;;5010811;28;20429;-71
2023/10/03 07:22:55;;;;;;;16.25;8.40;;;;;;;;;;5013287;28;20037;-70
2023/10/03 07:25:41;;;;;;;16.58;8.18;;;;;;;;;;5007410;28;20022;-70
2023/10/03 07:28:26;;;;;;;13.07;6.80;;;;;;;;;;5013173;28;20029;-71
2023/10/03 07:31:13;;;;;;;11.85;6.63;;;;;;;;;;5014258;28;20064;-73
2023/10/03 07:33:58;;;;;;;13.50;6.30;;;;;;;;;;4999254;28;20037;-71
2023/10/03 07:36:45;;;;;;;14.18;6.32;;;;;;;;;;5014263;28;20398;-71
2023/10/03 07:39:30;;;;;;;12.68;6.43;;;;;;;;;;5013939;28;20038;-64
2023/10/03 07:42:17;;;;;;;12.60;6.97;;;;;;;;;;5003302;28;20037;-71
2023/10/03 07:45:04;;;;;;;11.82;6.18;;;;;;;;;;5010115;28;20053;-77
2023/10/03 07:47:50;;;;;;;11.65;6.00;;;;;;;;;;4995315;28;20111;-76
2023/10/03 07:50:38;;;;;;;13.18;6.93;;;;;;;;;;5014805;28;20389;-76
2023/10/03 07:53:24;;;;;;;12.52;6.88;;;;;;;;;;5000783;28;20037;-77
2023/10/03 07:56:42;;;;;;;11.30;6.03;;;;;;;;;;4996078;28;20091;-76
2023/10/03 07:59:25;;;;;;;14.73;7.05;;;;;;;;;;5011658;28;20060;-74
2023/10/03 08:02:10;;;;;;;10.23;6.18;;;;;;;;;;5014443;28;20063;-73
2023/10/03 08:05:00;;;;;;;9.30;5.28;;;;;;;;;;5011498;28;20372;-72
2023/10/03 08:07:47;;;;;;;12.32;6.13;;;;;;;;;;5005606;28;20034;-72
2023/10/03 08:10:33;;;;;;;11.43;5.60;;;;;;;;;;5003343;28;20033;-73
2023/10/03 08:13:18;;;;;;;10.27;5.45;;;;;;;;;;4994444;28;20056;-71
2023/10/03 08:16:03;;;;;;;9.88;5.30;;;;;;;;;;4993617;28;20048;-74
2023/10/03 08:18:57;;;;;;;9.73;4.90;;;;;;;;;;5003278;28;20136;-74
2023/10/03 08:21:44;;;;;;;10.95;5.13;;;;;;;;;;4999348;28;20025;-74
2023/10/03 08:24:29;;;;;;;8.88;5.30;;;;;;;;;;5013739;28;20030;-74
2023/10/03 08:27:21;;;;;;;9.27;5.43;;;;;;;;;;5002033;28;20028;-73
2023/10/03 08:30:07;;;;;;;10.85;5.38;;;;;;;;;;5013037;28;20021;-73
2023/10/03 08:32:54;;;;;;;18.05;5.63;;;;;;;;;;5000595;28;20156;-74
2023/10/03 08:35:39;;;;;;;9.93;4.88;;;;;;;;;;5013508;28;20052;-70
2023/10/03 08:38:25;;;;;;;8.82;4.78;;;;;;;;;;5014376;28;20069;-70
2023/10/03 08:41:17;;;;;;;9.25;5.30;;;;;;;;;;5013943;28;20481;-71
2023/10/03 08:44:05;;;;;;;15.05;6.43;;;;;;;;;;5007620;28;20059;-71
2023/10/03 08:47:00;;;;;;;11.70;5.15;;;;;;;;;;5021948;28;20465;-70
2023/10/03 08:49:48;;;;;;;8.40;4.70;;;;;;;;;;5014010;28;20041;-72
2023/10/03 08:52:39;;;;;;;10.48;4.68;;;;;;;;;;4992719;28;20025;-71
2023/10/03 08:55:26;;;;;;;9.15;5.03;;;;;;;;;;5010773;28;20065;-77
2023/10/03 08:58:13;;;;;;;11.52;4.63;;;;;;;;;;5001620;28;20093;-71
2023/10/03 09:01:04;;;;;;;8.90;5.10;;;;;;;;;;4996896;28;20063;-71
2023/10/03 09:03:51;;;;;;;11.45;5.00;;;;;;;;;;5011659;28;20077;-70
2023/10/03 09:06:38;;;;;;;9.20;4.63;;;;;;;;;;5014117;28;20034;-72
2023/10/03 09:09:24;;;;;;;8.40;5.20;;;;;;;;;;4996126;28;20062;-71
2023/10/03 09:12:12;;;;;;;9.15;5.13;;;;;;;;;;4991948;28;20041;-67
2023/10/03 09:14:57;;;;;;;9.85;5.60;;;;;;;;;;5001503;28;20032;-74
2023/10/03 09:17:44;;;;;;;9.90;5.63;;;;;;;;;;5010434;28;20396;-74
2023/10/03 09:20:31;;;;;;;12.00;5.85;;;;;;;;;;5016134;28;20038;-76
2023/10/03 09:23:17;;;;;;;11.20;6.35;;;;;;;;;;4989946;28;20099;-73
2023/10/03 09:26:02;;;;;;;9.70;4.82;;;;;;;;;;5004854;28;20033;-74
2023/10/03 09:28:51;;;;;;;11.77;5.93;;;;;;;;;;4995268;28;20044;-73
2023/10/03 09:31:37;;;;;;;12.10;6.07;;;;;;;;;;5013331;28;20115;-76
2023/10/03 09:34:22;;;;;;;10.10;5.55;;;;;;;;;;5013472;28;20392;-76
2023/10/03 09:37:07;;;;;;;10.57;5.00;;;;;;;;;;4997504;28;20025;-76
2023/10/03 09:39:57;;;;;;;10.40;4.88;;;;;;;;;;5011652;28;20029;-78
2023/10/03 09:42:48;;;;;;;8.63;5.68;;;;;;;;;;5008582;28;20396;-77
2023/10/03 09:45:33;;;;;;;9.77;5.05;;;;;;;;;;4989539;28;20033;-81
2023/10/03 09:48:24;;;;;;;11.35;6.45;;;;;;;;;;5010906;28;20026;-69
2023/10/03 09:51:13;;;;;;;8.75;5.22;;;;;;;;;;5016696;28;20032;-69
2023/10/03 09:54:00;;;;;;;9.77;4.60;;;;;;;;;;5016061;28;20040;-74
2023/10/03 09:56:50;;;;;;;10.10;5.18;;;;;;;;;;5006862;28;20059;-73
2023/10/03 09:59:35;;;;;;;11.80;4.63;;;;;;;;;;4997474;28;20072;-72
2023/10/03 10:02:30;;;;;;;8.30;4.25;;;;;;;;;;5010240;28;20056;-73
2023/10/03 10:05:20;;;;;;;10.38;4.20;;;;;;;;;;5006015;28;20090;-74
2023/10/03 10:08:14;;;;;;;6.47;3.70;;;;;;;;;;5014951;28;20017;-69
2023/10/03 10:11:02;;;;;;;9.57;4.70;;;;;;;;;;5001516;28;20049;-76
2023/10/03 10:14:00;;;;;;;7.57;4.37;;;;;;;;;;5016206;28;20458;-77
2023/10/03 10:17:04;;;;;;;10.50;5.35;;;;;;;;;;5003116;28;20036;-77
2023/10/03 10:20:12;;;;;;;8.20;4.88;;;;;;;;;;5012758;28;20048;-77
2023/10/03 10:26:31;;;;;;;9.13;4.97;;;;;;;;;;5010980;28;20037;-68
2023/10/03 10:29:20;;;;;;;9.23;4.35;;;;;;;;;;5028584;23;20053;-74
2023/10/03 10:32:17;;;;;;;8.30;4.95;;;;;;;;;;5003288;28;20038;-73
2023/10/03 10:35:22;;;;;;;8.25;4.82;;;;;;;;;;5019317;28;20042;-73
2023/10/03 10:38:08;;;;;;;11.25;4.70;;;;;;;;;;5015210;28;20538;-75
2023/10/03 10:41:11;;;;;;;9.15;4.88;;;;;;;;;;5015775;28;20048;-73
2023/10/03 10:44:13;;;;;;;8.93;4.95;;;;;;;;;;5024758;28;20536;-75
2023/10/03 10:47:05;;;;;;;13.20;5.18;;;;;;;;;;5015022;28;20152;-70
2023/10/03 10:50:00;;;;;;;9.77;4.80;;;;;;;;;;5001925;28;20457;-71
2023/10/03 10:52:48;;;;;;;11.10;4.55;;;;;;;;;;5015357;28;20033;-70
2023/10/03 10:55:33;;;;;;;9.80;4.90;;;;;;;;;;5012520;28;20378;-70
2023/10/03 10:58:19;;;;;;;10.52;5.45;;;;;;;;;;5015241;28;20120;-70
2023/10/03 11:01:04;;;;;;;8.57;4.32;;;;;;;;;;5011976;28;20144;-69
2023/10/03 11:03:50;;;;;;;9.40;4.75;;;;;;;;;;5006994;28;20052;-69
2023/10/03 11:06:35;;;;;;;10.20;5.07;;;;;;;;;;5029276;28;20105;-71
2023/10/03 11:09:21;;;;;;;6.53;4.00;;;;;;;;;;5001436;28;20460;-68
2023/10/03 11:12:06;;;;;;;12.20;5.13;;;;;;;;;;5023123;28;20084;-71
2023/10/03 11:14:53;;;;;;;13.52;4.85;;;;;;;;;;5001100;28;20029;-69
2023/10/03 11:17:39;;;;;;;8.68;4.80;;;;;;;;;;5002163;28;20122;-70
2023/10/03 11:20:26;;;;;;;10.50;5.38;;;;;;;;;;4995078;28;20036;-70
2023/10/03 11:23:18;;;;;;;8.98;4.72;;;;;;;;;;5014661;28;20087;-69
2023/10/03 11:26:05;;;;;;;10.25;5.05;;;;;;;;;;5012976;28;20040;-69
2023/10/03 11:28:52;;;;;;;8.73;5.40;;;;;;;;;;4995304;28;20436;-69
2023/10/03 11:31:42;;;;;;;10.23;4.90;;;;;;;;;;4994992;28;20032;-70
2023/10/03 11:34:27;;;;;;;10.65;4.72;;;;;;;;;;5000827;28;20099;-69
2023/10/03 11:37:44;;;;;;;7.43;4.68;;;;;;;;;;4998997;28;20029;-69
2023/10/03 11:40:29;;;;;;;9.57;4.60;;;;;;;;;;5007682;28;20496;-70
2023/10/03 11:43:21;;;;;;;10.13;4.72;;;;;;;;;;5008451;28;20033;-73
2023/10/03 11:46:10;;;;;;;10.43;4.75;;;;;;;;;;5005095;28;20044;-70
2023/10/03 11:48:56;;;;;;;11.05;4.68;;;;;;;;;;5009101;28;20038;-72
2023/10/03 11:51:43;;;;;;;8.45;4.50;;;;;;;;;;5014872;28;20056;-69
2023/10/03 11:54:28;;;;;;;8.07;4.32;;;;;;;;;;4990023;28;20128;-70
2023/10/03 11:57:13;;;;;;;8.27;4.72;;;;;;;;;;5011746;28;20033;-71
2023/10/03 12:00:01;;;;;;;8.80;4.57;;;;;;;;;;5002184;28;20559;-70
2023/10/03 12:02:47;;;;;;;7.90;4.35;;;;;;;;;;5012931;28;20408;-70
2023/10/03 12:05:32;;;;;;;10.73;5.53;;;;;;;;;;5012976;28;20060;-69
2023/10/03 12:08:17;;;;;;;13.57;4.80;;;;;;;;;;4999730;28;20044;-70
2023/10/03 12:11:05;;;;;;;9.60;4.55;;;;;;;;;;5013147;28;20037;-69
2023/10/03 12:13:50;;;;;;;9.50;4.55;;;;;;;;;;5014137;28;20041;-70
2023/10/03 12:16:38;;;;;;;10.63;5.10;;;;;;;;;;4995132;28;20124;-80
2023/10/03 12:19:23;;;;;;;9.75;5.50;;;;;;;;;;5027651;28;20465;-69
2023/10/03 12:22:08;;;;;;;11.93;5.88;;;;;;;;;;4992177;28;20116;-71
2023/10/03 12:24:53;;;;;;;12.20;5.70;;;;;;;;;;5020107;28;20045;-70
2023/10/03 12:27:41;;;;;;;11.63;4.95;;;;;;;;;;5002197;28;20484;-70
2023/10/03 12:30:26;;;;;;;12.43;5.78;;;;;;;;;;5001400;28;20041;-71
2023/10/03 12:33:16;;;;;;;15.25;5.40;;;;;;;;;;5013994;28;20072;-70
2023/10/03 12:36:02;;;;;;;9.73;5.20;;;;;;;;;;5005992;28;20037;-71
2023/10/03 12:38:47;;;;;;;11.77;5.38;;;;;;;;;;5000742;28;20095;-74
2023/10/03 12:41:33;;;;;;;8.90;5.25;;;;;;;;;;4998452;28;20084;-74
2023/10/03 12:44:18;;;;;;;8.30;4.78;;;;;;;;;;4999912;28;20065;-70
2023/10/03 12:47:04;;;;;;;7.47;4.15;;;;;;;;;;4998757;28;20106;-71
2023/10/03 12:49:49;;;;;;;11.43;5.22;;;;;;;;;;5008465;28;20045;-70
2023/10/03 12:52:34;;;;;;;7.47;4.88;;;;;;;;;;5002762;28;20025;-70
2023/10/03 12:55:20;;;;;;;14.23;6.18;;;;;;;;;;5008265;28;20056;-75
2023/10/03 12:58:05;;;;;;;13.40;6.15;;;;;;;;;;5009868;28;20033;-76
2023/10/03 13:00:51;;;;;;;10.82;5.03;;;;;;;;;;5005000;28;20117;-76
2023/10/03 13:03:39;;;;;;;14.57;5.65;;;;;;;;;;5011609;28;20460;-76
2023/10/03 13:06:25;;;;;;;11.02;6.22;;;;;;;;;;5006470;28;20048;-77
2023/10/03 13:09:10;;;;;;;10.00;5.45;;;;;;;;;;5005042;28;20057;-75
2023/10/03 13:11:58;;;;;;;11.10;5.75;;;;;;;;;;5005470;28;20044;-70
2023/10/03 13:14:43;;;;;;;9.82;5.63;;;;;;;;;;5003253;28;20113;-63
2023/10/03 13:17:28;;;;;;;10.68;5.53;;;;;;;;;;5003459;28;20140;-73
2023/10/03 13:20:17;;;;;;;10.95;5.80;;;;;;;;;;5008340;28;20069;-69
2023/10/03 13:23:04;;;;;;;12.15;6.22;;;;;;;;;;5003295;28;20091;-70
2023/10/03 13:25:50;;;;;;;9.52;5.20;;;;;;;;;;5015494;28;20341;-71
2023/10/03 13:28:35;;;;;;;21.08;6.50;;;;;;;;;;5007374;28;20099;-72
2023/10/03 13:31:21;;;;;;;11.57;5.43;;;;;;;;;;5008073;28;20040;-71
2023/10/03 13:34:06;;;;;;;10.25;5.85;;;;;;;;;;5008209;28;20128;-73
2023/10/03 13:36:53;;;;;;;10.38;5.35;;;;;;;;;;5006547;28;20524;-74
2023/10/03 13:39:39;;;;;;;10.77;5.85;;;;;;;;;;5006573;28;20067;-74
2023/10/03 13:42:28;;;;;;;15.85;6.22;;;;;;;;;;5000835;28;20944;-73
2023/10/03 13:45:14;;;;;;;14.23;6.90;;;;;;;;;;5020721;28;20018;-74
2023/10/03 13:48:00;;;;;;;13.70;6.50;;;;;;;;;;5001935;28;20056;-68
2023/10/03 13:50:45;;;;;;;9.32;5.78;;;;;;;;;;5003098;28;20191;-71
2023/10/03 13:53:31;;;;;;;10.20;5.80;;;;;;;;;;5004083;28;20029;-70
2023/10/03 13:56:18;;;;;;;12.82;6.28;;;;;;;;;;5009910;28;20110;-70
2023/10/03 13:59:03;;;;;;;9.65;4.78;;;;;;;;;;5004453;28;20440;-69
2023/10/03 14:01:48;;;;;;;13.88;5.88;;;;;;;;;;5011980;28;20061;-73
2023/10/03 14:04:36;;;;;;;11.73;5.95;;;;;;;;;;4989977;28;20118;-68
2023/10/03 14:07:22;;;;;;;10.93;5.18;;;;;;;;;;5002656;28;20069;-69
2023/10/03 14:10:09;;;;;;;12.07;4.80;;;;;;;;;;4995837;28;20029;-74
2023/10/03 14:12:54;;;;;;;10.88;5.15;;;;;;;;;;5010742;28;20429;-76
2023/10/03 14:15:40;;;;;;;11.82;5.47;;;;;;;;;;5007364;28;20055;-77
2023/10/03 14:18:26;;;;;;;9.15;5.13;;;;;;;;;;5003407;28;20072;-70
2023/10/03 14:21:11;;;;;;;14.43;5.47;;;;;;;;;;5002589;28;20037;-71
2023/10/03 14:23:56;;;;;;;8.32;4.47;;;;;;;;;;5009060;28;20040;-71
2023/10/03 14:26:41;;;;;;;9.88;5.10;;;;;;;;;;5003278;28;20064;-71
2023/10/03 14:29:27;;;;;;;9.32;5.25;;;;;;;;;;4989817;28;20042;-86
2023/10/03 14:32:14;;;;;;;10.75;4.82;;;;;;;;;;4993060;28;20029;-81
2023/10/03 14:35:01;;;;;;;10.52;4.65;;;;;;;;;;4988851;28;20037;-82
2023/10/03 14:37:46;;;;;;;9.90;4.50;;;;;;;;;;4984156;28;20033;-84
2023/10/03 14:40:31;;;;;;;9.25;4.28;;;;;;;;;;5008322;28;20045;-81
2023/10/03 14:43:17;;;;;;;7.97;4.28;;;;;;;;;;4993852;28;20041;-79
2023/10/03 14:46:02;;;;;;;7.38;3.97;;;;;;;;;;5006232;28;20033;-81
2023/10/03 14:48:48;;;;;;;7.20;4.10;;;;;;;;;;5007657;28;20096;-83
2023/10/03 14:51:33;;;;;;;8.68;4.00;;;;;;;;;;5006005;28;20029;-82
2023/10/03 14:54:18;;;;;;;11.35;4.40;;;;;;;;;;5005800;28;20041;-81
2023/10/03 14:57:04;;;;;;;7.40;4.03;;;;;;;;;;5006084;28;20064;-80
2023/10/03 14:59:50;;;;;;;9.40;4.50;;;;;;;;;;5007943;28;20063;-79
2023/10/03 15:02:35;;;;;;;7.00;4.15;;;;;;;;;;5006910;28;20037;-70
2023/10/03 15:05:23;;;;;;;8.65;3.97;;;;;;;;;;5006230;28;20037;-75
2023/10/03 15:08:08;;;;;;;23.80;4.55;;;;;;;;;;5001612;28;20071;-79
2023/10/03 15:11:03;;;;;;;8.75;3.97;;;;;;;;;;5001976;28;20042;-80
2023/10/03 15:13:49;;;;;;;8.75;4.28;;;;;;;;;;5017677;28;20128;-78
2023/10/03 15:16:34;;;;;;;9.23;4.47;;;;;;;;;;4992098;28;20033;-78
2023/10/03 15:19:20;;;;;;;7.13;3.78;;;;;;;;;;5002360;28;20166;-69
2023/10/03 15:22:11;;;;;;;9.13;4.07;;;;;;;;;;5002693;28;20033;-74
2023/10/03 15:24:56;;;;;;;10.13;3.95;;;;;;;;;;4988598;28;20041;-74
2023/10/03 15:27:45;;;;;;;8.68;4.32;;;;;;;;;;5001770;28;20057;-74
2023/10/03 15:30:30;;;;;;;11.38;3.67;;;;;;;;;;4998538;28;20037;-76
2023/10/03 15:33:19;;;;;;;8.77;3.90;;;;;;;;;;5007866;28;20107;-74
2023/10/03 15:36:04;;;;;;;7.17;3.63;;;;;;;;;;5005085;28;20477;-74
2023/10/03 15:38:49;;;;;;;6.70;3.25;;;;;;;;;;5002271;28;20045;-81
2023/10/03 15:41:38;;;;;;;7.82;3.88;;;;;;;;;;5001987;28;20801;-75
2023/10/03 15:44:23;;;;;;;9.83;4.00;;;;;;;;;;5004756;28;20699;-74
2023/10/03 15:47:09;;;;;;;5.22;3.45;;;;;;;;;;5004204;28;20048;-76
2023/10/03 15:49:54;;;;;;;5.80;2.85;;;;;;;;;;5010825;28;20033;-78
2023/10/03 15:52:42;;;;;;;9.27;3.58;;;;;;;;;;4986738;28;20037;-79
2023/10/03 15:55:28;;;;;;;20.38;3.60;;;;;;;;;;5003232;28;20136;-75
2023/10/03 15:58:14;;;;;;;5.50;2.25;;;;;;;;;;4990863;28;20534;-71
2023/10/03 16:00:59;;;;;;;6.32;2.72;;;;;;;;;;5005508;28;20076;-72
2023/10/03 16:03:46;;;;;;;6.22;2.72;;;;;;;;;;5005575;28;20076;-70
2023/10/03 16:06:32;;;;;;;5.07;2.22;;;;;;;;;;5002485;28;20369;-75
2023/10/03 16:09:19;;;;;;;5.75;2.30;;;;;;;;;;5001096;28;20083;-71
2023/10/03 16:12:05;;;;;;;4.93;2.38;;;;;;;;;;4995815;28;20126;-73
2023/10/03 16:14:50;;;;;;;5.95;2.28;;;;;;;;;;4998994;28;20977;-69
2023/10/03 16:17:37;;;;;;;7.15;2.10;;;;;;;;;;4987965;28;20120;-69
2023/10/03 16:20:22;;;;;;;4.15;2.13;;;;;;;;;;5010293;28;20404;-67
2023/10/03 16:23:10;;;;;;;5.78;1.65;;;;;;;;;;4997323;28;20032;-70
2023/10/03 16:25:56;;;;;;;4.73;2.07;;;;;;;;;;5000001;28;20041;-71
2023/10/03 16:28:41;;;;;;;4.68;1.92;;;;;;;;;;5012015;28;20592;-68
2023/10/03 16:31:26;;;;;;;3.55;2.00;;;;;;;;;;5009772;28;20036;-70
2023/10/03 16:34:12;;;;;;;3.50;1.75;;;;;;;;;;5000247;28;20550;-67